首页
METAR-TAF:

METAR-TAF

机场 :

曼哈頓, 堪薩斯州, 美国

纬度: 39-08-07N, 经度: 096-40-40W, 海拔: 321米

当前天气观测

该预报发布于25分钟前的05:52 UTC
风速12节,风向南转西南,有时为18节阵风
温度 26°C
湿度 61%
气压 1010 hPa
能見度: 16.1公里
少量云层高于11000英尺

METAR: KMHK 130552Z AUTO 21012G18KT 10SM FEW110 26/18 A2983 RMK AO2 SLP089 T02610183 10322 20261 403390161 50010

时间: 01:17 (06:17 UTC)

预报

该预报发布于57分钟前的05:20 UTC
预报有效从13日的 06点(UTC)到 14日的 06点(UTC)
风速10节,风向南转西南
能見度: 10公里
天空无云
从 13日的 1500点(UTC)
风速10节,风向南转西南,有时为20节阵风
能見度: 10公里
散云层高于15000英尺
从 14日的 0000点(UTC)
风速9节,风向东北
能見度: 10公里
散云层高于9000英尺, 积雨云.
附近有雷暴
从 14日的 0300点(UTC)
风速10节,风向北转东北
能見度: 10公里
散云层高于9000英尺

TAF: KMHK 130520Z 1306/1406 20010KT P6SM SKC FM131500 21010G20KT P6SM SCT150 FM140000 040009KT P6SM VCTS SCT090CB FM140300 03010KT P6SM SCT090

超过4000个机场的气象观测和天气预报(METAR&TAF报告)。

可查询的气象台以黄色和红色小点在地图上表示。

将鼠标移到小点上方,可查看气象台名称。

然后点击查看天气观测和预报。

如需切换地图:点击带黑十字的绿色按钮放大地图;点击带横线的绿色按钮缩小地图;或者点击绿色箭头查看邻近地区的地图。


METAR-TAF: